Time;durP1;ratioP1;P1;durP2;ratioP2;P2;SDS_P1;SDS_P2;PMS_P1;PMS_P2;Temp;Humidity;BMP_temperature;BMP_pressure;BME280_temperature;BME280_humidity;BME280_pressure;Samples;Min_cycle;Max_cycle;Signal;HPM_P1;HPM_P2
2023/04/25 00:00:16;;;;;;;;;0.25;0.25;;;;;22.51;34.31;100986.16;5076656;27;46325;-76
2023/04/25 00:02:42;;;;;;;;;2.00;1.00;;;;;22.48;34.15;100978.59;5058447;28;45383;-76
2023/04/25 00:05:07;;;;;;;;;3.67;2.00;;;;;22.43;34.29;100968.50;5076805;27;45468;-75
2023/04/25 00:07:34;;;;;;;;;4.00;1.67;;;;;22.49;34.39;100977.56;5076803;27;45312;-76
2023/04/25 00:10:00;;;;;;;;;1.33;1.33;;;;;22.56;33.99;100991.75;5076499;28;46328;-75
2023/04/25 00:12:28;;;;;;;;;2.33;2.00;;;;;22.52;33.75;100983.34;5076387;28;45388;-76
2023/04/25 00:14:53;;;;;;;;;1.00;1.00;;;;;22.57;33.93;100989.91;5076795;28;45279;-76
2023/04/25 00:17:19;;;;;;;;;1.00;1.00;;;;;22.51;33.69;100983.50;5076363;27;45330;-76
2023/04/25 00:19:46;;;;;;;;;1.00;1.00;;;;;22.54;34.42;100987.63;5076430;28;45952;-76
2023/04/25 00:22:11;;;;;;;;;1.00;1.00;;;;;22.54;34.46;100992.91;5076530;28;45249;-75
2023/04/25 00:24:37;;;;;;;;;1.33;1.33;;;;;22.54;33.86;100996.41;5076438;28;45269;-75
2023/04/25 00:27:02;;;;;;;;;1.00;1.00;;;;;22.43;34.46;100981.75;5076391;27;45315;-75
2023/04/25 00:29:28;;;;;;;;;2.00;2.00;;;;;22.34;34.25;100961.63;5076530;28;45839;-75
2023/04/25 00:31:53;;;;;;;;;0.67;0.67;;;;;22.45;34.40;100974.47;5075876;28;45411;-75
2023/04/25 00:34:18;;;;;;;;;2.00;2.00;;;;;22.49;34.16;100986.34;5076499;28;45728;-75
2023/04/25 00:36:44;;;;;;;;;2.00;1.00;;;;;22.54;34.13;100983.16;5076367;28;45418;-75
2023/04/25 00:39:10;;;;;;;;;1.00;1.00;;;;;22.45;33.80;100968.34;5075995;27;45483;-75
2023/04/25 00:41:36;;;;;;;;;1.00;1.00;;;;;22.52;33.96;100986.00;5076200;27;45399;-76
2023/04/25 00:44:04;;;;;;;;;0.67;0.67;;;;;22.52;33.91;100993.94;5075567;27;45445;-75
2023/04/25 00:46:31;;;;;;;;;3.00;1.25;;;;;22.39;34.42;100986.59;5075974;27;45363;-76
2023/04/25 00:48:56;;;;;;;;;1.00;1.00;;;;;22.46;33.91;100997.31;5075894;28;46098;-75
2023/04/25 00:51:22;;;;;;;;;2.00;2.00;;;;;22.51;33.98;101002.06;5075856;28;45401;-76
2023/04/25 00:53:49;;;;;;;;;3.00;2.00;;;;;22.53;34.35;101008.03;5076260;27;45397;-76
2023/04/25 00:56:15;;;;;;;;;2.00;2.00;;;;;22.48;33.85;100999.78;5076029;28;45368;-75
2023/04/25 00:58:42;;;;;;;;;1.50;1.50;;;;;22.50;34.33;101005.72;5075902;28;47540;-76
2023/04/25 01:01:08;;;;;;;;;2.00;1.00;;;;;22.52;34.01;101007.19;5075571;28;45484;-75
2023/04/25 01:03:35;;;;;;;;;2.00;1.00;;;;;22.47;34.33;100995.47;5075926;28;45289;-76
2023/04/25 01:06:02;;;;;;;;;3.00;3.00;;;;;22.46;34.01;100992.00;5076020;28;45373;-76
2023/04/25 01:08:28;;;;;;;;;1.00;1.00;;;;;22.49;34.47;100996.94;5075711;28;47460;-76
2023/04/25 01:10:53;;;;;;;;;2.00;2.00;;;;;22.45;34.29;100981.59;5057442;28;45496;-75
2023/04/25 01:13:19;;;;;;;;;1.00;1.00;;;;;22.46;34.21;100984.03;5076087;28;45311;-75
2023/04/25 01:15:45;;;;;;;;;3.00;2.00;;;;;22.53;34.20;100997.44;5075461;28;45337;-75
2023/04/25 01:18:10;;;;;;;;;3.25;1.00;;;;;22.54;33.90;100991.09;5075574;28;46857;-75
2023/04/25 01:20:37;;;;;;;;;2.00;1.00;;;;;22.55;34.42;100994.59;5075717;27;45274;-75
2023/04/25 01:23:03;;;;;;;;;1.00;1.00;;;;;22.52;34.36;100985.16;5075845;28;45462;-76
2023/04/25 01:25:29;;;;;;;;;2.50;2.00;;;;;22.45;34.47;100979.75;5075681;28;45575;-75
2023/04/25 01:27:55;;;;;;;;;2.50;2.50;;;;;22.54;34.50;100990.28;5075314;27;46515;-76
2023/04/25 01:30:21;;;;;;;;;2.50;2.00;;;;;22.54;33.93;100988.44;5075162;27;45376;-75
2023/04/25 01:32:48;;;;;;;;;3.00;1.67;;;;;22.53;34.02;100986.81;5075405;28;45359;-73
2023/04/25 01:35:13;;;;;;;;;1.75;1.75;;;;;22.54;34.40;100991.09;5075643;27;45476;-75
2023/04/25 01:37:42;;;;;;;;;1.25;1.00;;;;;22.55;34.38;101000.72;5075248;28;46823;-75
2023/04/25 01:40:10;;;;;;;;;3.50;1.00;;;;;22.55;34.36;100995.41;5075164;28;45298;-76
2023/04/25 01:42:37;;;;;;;;;2.25;2.00;;;;;22.53;34.61;101005.38;5075617;28;45463;-76
2023/04/25 01:45:03;;;;;;;;;1.33;1.33;;;;;22.51;34.04;101004.72;5075193;28;45317;-75
2023/04/25 01:47:28;;;;;;;;;1.75;1.75;;;;;22.43;33.99;100995.00;5075206;28;47038;-75
2023/04/25 01:49:54;;;;;;;;;1.00;1.00;;;;;22.53;34.32;101016.00;5075308;28;45317;-75
2023/04/25 01:52:19;;;;;;;;;2.00;2.00;;;;;22.42;34.51;100985.41;5075476;27;45283;-76
2023/04/25 01:54:45;;;;;;;;;2.00;1.00;;;;;22.38;33.86;100977.00;5077387;27;45379;-76
2023/04/25 01:57:14;;;;;;;;;2.00;2.00;;;;;22.50;34.26;100997.78;5060509;27;46151;-76
2023/04/25 01:59:42;;;;;;;;;2.00;1.00;;;;;22.53;34.01;101000.06;5078326;27;45614;-76
2023/04/25 02:02:07;;;;;;;;;2.75;2.75;;;;;22.52;34.21;101001.06;5078678;28;45323;-76
2023/04/25 02:04:32;;;;;;;;;1.00;0.75;;;;;22.40;34.28;100993.53;5078782;27;45465;-76
2023/04/25 02:06:58;;;;;;;;;2.00;2.00;;;;;22.45;34.02;101008.94;5078600;28;46236;-76
2023/04/25 02:09:23;;;;;;;;;1.00;1.00;;;;;22.52;34.37;101028.41;5078681;28;45474;-75
2023/04/25 02:11:49;;;;;;;;;3.00;1.00;;;;;22.52;34.11;101032.88;5078616;28;45902;-76
2023/04/25 02:14:15;;;;;;;;;1.00;1.00;;;;;22.40;33.96;101016.59;5078185;28;45547;-75
2023/04/25 02:16:40;;;;;;;;;1.50;1.50;;;;;22.52;33.94;101035.53;5078448;28;46161;-75
2023/04/25 02:19:06;;;;;;;;;1.00;1.00;;;;;22.52;34.32;101036.38;5078344;27;45325;-75
2023/04/25 02:21:32;;;;;;;;;2.25;2.25;;;;;22.35;34.21;101005.69;5078176;27;45426;-75
2023/04/25 02:23:57;;;;;;;;;1.00;1.00;;;;;22.32;34.08;101004.22;5060300;28;45460;-76
2023/04/25 02:26:26;;;;;;;;;2.00;2.00;;;;;22.51;34.59;101029.41;5078108;27;46207;-76
2023/04/25 02:28:52;;;;;;;;;1.00;1.00;;;;;22.52;34.48;101025.75;5077954;27;45375;-76
2023/04/25 02:31:17;;;;;;;;;2.00;2.00;;;;;22.48;33.98;101019.16;5078277;28;45271;-76
2023/04/25 02:33:43;;;;;;;;;1.50;1.50;;;;;22.49;33.96;101012.03;5078281;28;45364;-75
2023/04/25 02:36:08;;;;;;;;;1.00;1.00;;;;;22.51;34.03;101031.22;5078152;28;46058;-76
2023/04/25 02:38:34;;;;;;;;;2.00;2.00;;;;;22.50;34.54;101030.44;5077718;27;45301;-74
2023/04/25 02:40:59;;;;;;;;;3.00;1.75;;;;;22.48;34.33;101021.81;5078233;28;45363;-75
2023/04/25 02:43:25;;;;;;;;;2.75;2.00;;;;;22.51;34.45;101028.56;5077920;28;45415;-75
2023/04/25 02:45:50;;;;;;;;;2.00;2.00;;;;;22.38;34.02;101013.28;5077981;27;45559;-76
2023/04/25 02:48:15;;;;;;;;;3.75;2.00;;;;;22.51;34.56;101039.19;5077997;28;45384;-75
2023/04/25 02:50:41;;;;;;;;;2.00;2.00;;;;;22.44;34.38;101033.78;5078017;27;45321;-76
2023/04/25 02:53:06;;;;;;;;;1.75;1.75;;;;;22.44;34.65;101035.59;5077951;27;45337;-75
2023/04/25 02:55:32;;;;;;;;;3.00;2.00;;;;;22.44;34.14;101035.59;5077828;28;46133;-76
2023/04/25 02:57:57;;;;;;;;;1.00;1.00;;;;;21.85;34.71;100945.94;5077488;27;45294;-76
2023/04/25 03:00:22;;;;;;;;;1.00;1.00;;;;;22.52;34.52;101052.28;5078001;28;45370;-75
2023/04/25 03:02:48;;;;;;;;;1.00;1.00;;;;;22.45;33.90;101047.88;5077887;28;45352;-76
2023/04/25 03:05:13;;;;;;;;;1.00;1.00;;;;;22.51;34.52;101055.91;5077339;28;47304;-76
2023/04/25 03:07:39;;;;;;;;;3.00;2.00;;;;;22.52;33.92;101060.22;5077505;28;45368;-75
2023/04/25 03:10:08;;;;;;;;;2.00;2.00;;;;;22.49;34.57;101062.41;5077753;27;45490;-75
2023/04/25 03:12:33;;;;;;;;;1.00;1.00;;;;;22.49;34.09;101070.34;5077408;27;45393;-76
2023/04/25 03:14:59;;;;;;;;;1.00;1.00;;;;;22.43;34.31;101060.47;5077380;28;47439;-76
2023/04/25 03:17:24;;;;;;;;;2.00;2.00;;;;;22.48;34.17;101072.19;5077507;27;45486;-75
2023/04/25 03:19:49;;;;;;;;;1.75;1.75;;;;;22.52;34.41;101080.63;5077529;27;45346;-76
2023/04/25 03:22:15;;;;;;;;;1.00;1.00;;;;;22.46;34.53;101076.84;5059268;28;45348;-76
2023/04/25 03:24:40;;;;;;;;;1.00;1.00;;;;;22.49;34.16;101083.63;5077331;27;46214;-75
2023/04/25 03:27:06;;;;;;;;;3.00;3.00;;;;;22.41;34.56;101071.25;5076787;27;45293;-75
2023/04/25 03:29:31;;;;;;;;;2.25;1.50;;;;;22.43;34.51;101087.78;5077445;28;45331;-75
2023/04/25 03:31:56;;;;;;;;;1.00;1.00;;;;;22.44;33.96;101088.63;5077319;28;45474;-76
2023/04/25 03:34:22;;;;;;;;;3.00;1.00;;;;;22.49;34.15;101110.13;5077227;27;45331;-75
2023/04/25 03:36:47;;;;;;;;;2.00;1.00;;;;;22.42;34.06;101104.72;5077307;28;45300;-76
2023/04/25 03:39:13;;;;;;;;;2.00;2.00;;;;;22.39;34.44;101097.94;5077081;27;45351;-76
2023/04/25 03:41:38;;;;;;;;;1.25;1.00;;;;;22.47;33.98;101112.13;5076820;27;45282;-72
2023/04/25 03:44:03;;;;;;;;;1.50;1.50;;;;;22.49;34.53;101129.53;5058964;28;46199;-76
2023/04/25 03:46:29;;;;;;;;;2.00;2.00;;;;;22.50;34.04;101138.31;5077095;28;45235;-76
2023/04/25 03:48:54;;;;;;;;;2.00;1.25;;;;;22.50;34.17;101138.31;5077102;28;45234;-76
2023/04/25 03:51:19;;;;;;;;;2.00;2.00;;;;;22.43;34.14;101129.41;5077062;28;45234;-76
2023/04/25 03:53:45;;;;;;;;;2.00;2.00;;;;;22.48;34.41;101142.97;5076949;27;46377;-75
2023/04/25 03:56:10;;;;;;;;;2.00;2.00;;;;;22.42;34.24;101127.75;5076448;28;45423;-75
2023/04/25 03:58:35;;;;;;;;;2.00;2.00;;;;;22.49;34.02;101147.25;5077046;27;45363;-76
2023/04/25 04:01:03;;;;;;;;;3.25;2.00;;;;;22.49;34.64;101156.03;5076824;27;45457;-75
2023/04/25 04:03:28;;;;;;;;;1.50;1.50;;;;;22.49;34.04;101157.84;5076660;27;47063;-76
2023/04/25 04:05:53;;;;;;;;;2.00;1.00;;;;;22.45;34.36;101145.97;5076301;28;54610;-76
2023/04/25 04:08:19;;;;;;;;;2.00;1.33;;;;;22.45;34.10;101156.56;5076871;27;45346;-76
2023/04/25 04:10:44;;;;;;;;;2.75;1.00;;;;;22.31;33.87;101135.09;5076458;28;45288;-77
2023/04/25 04:13:10;;;;;;;;;2.00;0.67;;;;;22.43;33.96;101164.69;5076574;28;45664;-75
2023/04/25 04:15:35;;;;;;;;;2.25;2.25;;;;;22.48;34.09;101164.97;5076539;27;45403;-74
2023/04/25 04:18:02;;;;;;;;;2.00;1.00;;;;;22.48;34.03;101172.94;5075641;28;45343;-76
2023/04/25 04:20:29;;;;;;;;;1.25;1.25;;;;;22.48;34.54;101177.44;5076618;27;45422;-75
2023/04/25 04:22:54;;;;;;;;;1.00;1.00;;;;;22.48;34.17;101177.44;5076333;28;46756;-76
2023/04/25 04:25:20;;;;;;;;;1.00;1.00;;;;;22.36;34.06;101169.88;5076270;27;45335;-75
2023/04/25 04:27:45;;;;;;;;;1.50;1.00;;;;;22.41;34.05;101177.28;5076259;27;45427;-76
2023/04/25 04:30:12;;;;;;;;;2.00;2.00;;;;;22.49;34.18;101197.63;5076559;28;45419;-76
2023/04/25 04:32:38;;;;;;;;;2.00;2.00;;;;;22.49;34.20;101197.63;5076110;27;47156;-76
2023/04/25 04:35:04;;;;;;;;;2.00;2.00;;;;;22.48;34.12;101202.09;5076358;27;45384;-76
2023/04/25 04:37:30;;;;;;;;;1.00;1.00;;;;;22.46;34.10;101204.09;5076297;27;45413;-76
2023/04/25 04:39:55;;;;;;;;;2.00;2.00;;;;;22.39;34.43;101192.56;5075630;28;45430;-76
2023/04/25 04:42:21;;;;;;;;;1.00;1.00;;;;;22.33;34.43;101187.97;5076325;27;46925;-76
2023/04/25 04:44:47;;;;;;;;;2.00;1.00;;;;;22.44;34.64;101213.22;5076164;28;45358;-76
2023/04/25 04:47:13;;;;;;;;;2.25;1.00;;;;;22.47;34.61;101213.72;5076393;28;45424;-75
2023/04/25 04:49:39;;;;;;;;;0.25;0.25;;;;;22.47;33.98;101220.84;5076146;28;45506;-76
2023/04/25 04:52:05;;;;;;;;;1.00;1.00;;;;;22.47;33.97;101226.16;5075716;28;46278;-75
2023/04/25 04:54:30;;;;;;;;;1.50;1.50;;;;;22.17;34.10;101190.50;5075865;28;45301;-75
2023/04/25 04:56:56;;;;;;;;;1.50;1.50;;;;;22.42;34.35;101239.09;5076123;28;45615;-75
2023/04/25 04:59:21;;;;;;;;;2.00;1.50;;;;;22.46;34.19;101245.69;5076108;28;45286;-76
2023/04/25 05:01:46;;;;;;;;;2.00;2.00;;;;;22.43;34.59;101246.06;5075963;28;46325;-75
2023/04/25 05:04:12;;;;;;;;;1.50;1.00;;;;;22.38;34.37;101231.47;5057858;28;45379;-76
2023/04/25 05:06:37;;;;;;;;;1.00;1.00;;;;;22.45;34.45;101257.31;5076146;27;45354;-75
2023/04/25 05:09:03;;;;;;;;;0.75;0.75;;;;;22.32;34.08;101247.25;5075669;28;45344;-73
2023/04/25 05:11:28;;;;;;;;;2.25;1.75;;;;;22.33;34.09;101252.38;5075621;28;46195;-75
2023/04/25 05:13:54;;;;;;;;;1.50;1.50;;;;;22.38;33.82;101271.25;5075816;28;45321;-76
2023/04/25 05:16:20;;;;;;;;;1.75;1.00;;;;;22.40;34.07;101279.06;5075945;28;45305;-76
2023/04/25 05:18:46;;;;;;;;;1.00;1.00;;;;;22.43;34.05;101293.78;5076023;28;45467;-75
2023/04/25 05:21:12;;;;;;;;;4.00;2.75;;;;;22.40;33.99;101293.09;5075592;27;46299;-75
2023/04/25 05:23:37;;;;;;;;;1.00;1.00;;;;;22.43;34.07;101296.44;5075359;28;45345;-76
2023/04/25 05:26:02;;;;;;;;;1.00;1.00;;;;;22.34;34.27;101299.13;5076037;28;45317;-75
2023/04/25 05:28:28;;;;;;;;;1.00;1.00;;;;;22.40;34.50;101297.59;5075977;27;45495;-75
2023/04/25 05:30:53;;;;;;;;;2.00;2.00;;;;;22.39;34.32;101298.59;5079107;27;46121;-75
2023/04/25 05:33:19;;;;;;;;;2.00;1.00;;;;;22.41;34.42;101312.50;5079044;27;45389;-75
2023/04/25 05:35:45;;;;;;;;;1.25;1.25;;;;;22.33;33.72;101296.66;5079315;28;45475;-75
2023/04/25 05:38:10;;;;;;;;;1.00;1.00;;;;;22.42;33.92;101319.47;5078760;27;45390;-75
2023/04/25 05:40:36;;;;;;;;;0.75;0.75;;;;;22.45;34.34;101326.25;5078950;27;47098;-75
2023/04/25 05:43:01;;;;;;;;;1.00;1.00;;;;;22.46;33.90;101341.16;5078957;27;45339;-76
2023/04/25 05:45:26;;;;;;;;;2.00;0.75;;;;;22.46;33.69;101335.84;5079335;27;45369;-75
2023/04/25 05:47:52;;;;;;;;;2.00;1.00;;;;;22.47;34.20;101348.13;5079105;28;45384;-76
2023/04/25 05:50:17;;;;;;;;;1.25;1.00;;;;;22.32;33.70;101316.19;5078751;27;45453;-75
2023/04/25 05:52:42;;;;;;;;;1.00;1.00;;;;;22.47;34.25;101340.16;5060271;28;45426;-76
2023/04/25 05:55:08;;;;;;;;;1.00;1.00;;;;;22.39;34.20;101338.38;5078965;27;45723;-76
2023/04/25 05:57:34;;;;;;;;;1.75;1.00;;;;;22.39;34.08;101339.19;5079027;27;45386;-76
2023/04/25 05:59:59;;;;;;;;;0.75;0.25;;;;;22.45;33.99;101353.59;5078648;27;46400;-75
2023/04/25 06:02:25;;;;;;;;;2.25;1.00;;;;;22.46;33.95;101360.53;5078652;27;45335;-76
2023/04/25 06:04:51;;;;;;;;;1.75;1.75;;;;;22.45;34.14;101366.84;5079069;28;45398;-75
2023/04/25 06:07:16;;;;;;;;;2.00;1.25;;;;;22.46;34.18;101362.34;5078464;27;45237;-75
2023/04/25 06:09:43;;;;;;;;;1.67;1.00;;;;;22.50;33.62;101374.28;5078464;27;47001;-76
2023/04/25 06:12:08;;;;;;;;;2.50;1.25;;;;;22.43;34.11;101370.69;5078547;28;45531;-75
2023/04/25 06:14:33;;;;;;;;;1.00;1.00;;;;;22.51;33.68;101381.22;5078783;28;45210;-76
2023/04/25 06:16:59;;;;;;;;;1.00;1.00;;;;;22.42;33.68;101372.50;5078589;28;45300;-76
2023/04/25 06:19:24;;;;;;;;;1.33;1.33;;;;;22.49;33.77;101389.38;5078059;28;46128;-75
2023/04/25 06:21:50;;;;;;;;;0.00;0.00;;;;;22.43;33.51;101368.81;5078532;27;45318;-76
2023/04/25 06:24:15;;;;;;;;;0.00;0.00;;;;;22.55;34.10;101387.03;5078578;27;45300;-76
2023/04/25 06:26:40;;;;;;;;;1.00;0.75;;;;;22.38;34.28;101369.34;5078392;27;45481;-75
2023/04/25 06:29:06;;;;;;;;;2.67;0.00;;;;;22.47;34.09;101386.06;5078360;28;45967;-76
2023/04/25 06:31:34;;;;;;;;;0.25;0.25;;;;;22.56;34.13;101404.63;5078199;28;45431;-73
2023/04/25 06:33:59;;;;;;;;;1.50;1.50;;;;;22.48;34.27;101393.00;5057710;28;45329;-76
2023/04/25 06:36:25;;;;;;;;;2.00;0.75;;;;;22.27;33.93;101364.41;5057966;28;45406;-75
2023/04/25 06:38:52;;;;;;;;;0.75;0.75;;;;;22.56;33.64;101409.91;5057469;28;47522;-75
2023/04/25 06:41:17;;;;;;;;;1.75;1.00;;;;;22.45;33.99;101384.59;5056656;28;45322;-75
2023/04/25 06:43:43;;;;;;;;;1.00;1.00;;;;;22.57;34.27;101411.56;5057909;28;45407;-75
2023/04/25 06:46:08;;;;;;;;;1.00;1.00;;;;;22.58;34.11;101415.88;5058016;28;45460;-75
2023/04/25 06:48:33;;;;;;;;;1.00;1.00;;;;;22.59;33.66;101413.03;5057381;28;47205;-75
2023/04/25 06:50:59;;;;;;;;;2.00;1.00;;;;;22.59;33.84;101413.03;5057607;28;45556;-76
2023/04/25 06:53:24;;;;;;;;;0.67;0.67;;;;;22.58;33.95;101413.22;5057890;28;45301;-75
2023/04/25 06:55:50;;;;;;;;;0.00;0.00;;;;;22.62;33.94;101412.69;5057814;28;45476;-76
2023/04/25 06:58:15;;;;;;;;;1.67;1.00;;;;;22.62;33.86;101417.19;5056260;28;47529;-76
2023/04/25 07:00:40;;;;;;;;;1.00;1.00;;;;;22.62;34.10;101415.34;5057523;28;45431;-76
2023/04/25 07:03:06;;;;;;;;;0.75;0.75;;;;;22.63;33.45;101416.19;5057342;28;45358;-74
2023/04/25 07:05:31;;;;;;;;;1.00;1.00;;;;;22.49;33.90;101402.63;5057590;28;45424;-76
2023/04/25 07:07:57;;;;;;;;;2.25;1.50;;;;;22.61;33.41;101418.19;5057280;28;45952;-75
2023/04/25 07:10:22;;;;;;;;;0.33;0.00;;;;;22.45;34.17;101397.84;5057299;28;45421;-72
2023/04/25 07:12:48;;;;;;;;;2.00;1.00;;;;;22.65;34.15;101426.63;5057483;28;45387;-76
2023/04/25 07:15:13;;;;;;;;;0.00;0.00;;;;;22.57;33.73;101411.56;5057193;28;46834;-76
2023/04/25 07:17:38;;;;;;;;;3.25;1.50;;;;;22.67;33.72;101421.97;5055602;28;46217;-75
2023/04/25 07:20:05;;;;;;;;;1.00;1.00;;;;;22.67;33.61;101421.97;5057184;28;45404;-75
2023/04/25 07:22:31;;;;;;;;;2.00;1.00;;;;;22.54;33.74;101411.88;5057350;28;45452;-75
2023/04/25 07:24:57;;;;;;;;;1.00;1.00;;;;;22.61;33.84;101411.03;5057323;28;45302;-73
2023/04/25 07:27:22;;;;;;;;;1.00;1.00;;;;;22.59;33.35;101421.00;5059036;28;45357;-75
2023/04/25 07:29:47;;;;;;;;;1.00;1.00;;;;;22.67;33.47;101428.09;5077462;28;45321;-75
2023/04/25 07:32:13;;;;;;;;;0.33;0.33;;;;;22.47;33.63;101396.69;5076959;27;45419;-75
2023/04/25 07:34:39;;;;;;;;;0.33;0.33;;;;;22.61;33.66;101423.50;5077548;28;45498;-76
2023/04/25 07:37:05;;;;;;;;;2.75;2.00;;;;;22.69;33.56;101442.00;5077098;27;46336;-75
2023/04/25 07:39:30;;;;;;;;;0.00;0.00;;;;;22.70;33.42;101443.72;5077016;28;45919;-74
2023/04/25 07:41:58;;;;;;;;;0.67;0.67;;;;;22.70;33.25;101438.41;5077453;27;45366;-75
2023/04/25 07:44:23;;;;;;;;;3.67;1.00;;;;;22.72;33.39;101446.19;5077474;27;45438;-74
2023/04/25 07:46:49;;;;;;;;;1.00;0.25;;;;;22.62;33.22;101430.44;5058500;28;46234;-74
2023/04/25 07:49:15;;;;;;;;;2.67;1.67;;;;;22.74;33.25;101454.81;5077009;28;45375;-75
2023/04/25 07:51:40;;;;;;;;;1.00;1.00;;;;;22.74;33.74;101449.53;5077047;27;45431;-75
2023/04/25 07:54:06;;;;;;;;;1.25;1.25;;;;;22.69;33.24;101441.22;5077312;28;45363;-75
2023/04/25 07:56:32;;;;;;;;;3.67;2.00;;;;;22.74;33.44;101458.28;5076867;27;47029;-74
2023/04/25 07:58:57;;;;;;;;;1.00;1.00;;;;;22.75;33.79;101453.81;5076773;28;45408;-73
2023/04/25 08:01:22;;;;;;;;;2.00;2.00;;;;;22.74;33.07;101465.44;5076822;28;45372;-75
2023/04/25 08:03:48;;;;;;;;;1.00;1.00;;;;;22.74;33.45;101465.44;5076977;28;45364;-74
2023/04/25 08:06:13;;;;;;;;;1.67;1.67;;;;;22.67;33.65;101456.44;5076711;27;46085;-73
2023/04/25 08:08:38;;;;;;;;;3.25;2.00;;;;;22.69;33.38;101468.53;5076935;28;45358;-74
2023/04/25 08:11:04;;;;;;;;;1.33;0.00;;;;;22.63;33.68;101453.31;5076841;28;45441;-75
2023/04/25 08:13:29;;;;;;;;;1.50;1.25;;;;;22.73;33.09;101474.38;5076685;28;45209;-75
2023/04/25 08:15:55;;;;;;;;;2.00;2.00;;;;;22.72;33.08;101462.09;5076168;28;46863;-74
2023/04/25 08:18:20;;;;;;;;;2.00;2.00;;;;;22.68;33.26;101466.91;5076575;27;45336;-75
2023/04/25 08:20:45;;;;;;;;;2.33;1.33;;;;;22.74;33.22;101474.19;5058742;28;45624;-75
2023/04/25 08:23:11;;;;;;;;;0.75;0.75;;;;;22.74;33.04;101476.03;5076715;27;45519;-75
2023/04/25 08:25:36;;;;;;;;;1.00;1.00;;;;;22.73;33.44;101485.81;5076467;28;46433;-74
2023/04/25 08:28:02;;;;;;;;;1.00;1.00;;;;;22.74;33.60;101481.34;5076318;27;45583;-74
2023/04/25 08:30:28;;;;;;;;;1.00;1.00;;;;;22.73;33.33;101485.81;5076308;28;45345;-74
2023/04/25 08:32:53;;;;;;;;;3.00;1.75;;;;;22.67;33.13;101472.34;5076219;27;45296;-74
2023/04/25 08:35:20;;;;;;;;;1.67;1.00;;;;;22.72;33.34;101485.97;5076523;28;45415;-74
2023/04/25 08:37:46;;;;;;;;;2.00;1.00;;;;;22.73;33.03;101482.34;5076369;28;45400;-75
2023/04/25 08:40:14;;;;;;;;;1.33;1.33;;;;;22.71;32.91;101471.91;5076009;27;45318;-74
2023/04/25 08:42:41;;;;;;;;;0.67;0.67;;;;;22.63;32.96;101475.38;5076486;27;45386;-74
2023/04/25 08:45:07;;;;;;;;;1.25;1.00;;;;;22.64;33.14;101473.53;5075665;28;45514;-75
2023/04/25 08:47:34;;;;;;;;;1.00;1.00;;;;;22.70;32.96;101480.84;5076016;28;45446;-73
2023/04/25 08:50:01;;;;;;;;;1.33;1.33;;;;;22.77;33.33;101498.75;5076210;28;45464;-75
2023/04/25 08:52:32;;;;;;;;;0.00;0.00;;;;;22.77;32.82;101493.44;5074852;27;45468;-74
2023/04/25 08:55:00;;;;;;;;;1.00;1.00;;;;;22.66;33.27;101468.91;5075952;28;45312;-75
2023/04/25 08:57:26;;;;;;;;;1.33;1.33;;;;;22.63;32.79;101470.06;5074769;28;45327;-75
2023/04/25 08:59:52;;;;;;;;;0.33;0.33;;;;;22.70;33.14;101488.81;5075863;28;45347;-74
2023/04/25 09:02:20;;;;;;;;;3.00;1.00;;;;;22.74;33.09;101494.63;5076083;28;45643;-75
2023/04/25 09:04:45;;;;;;;;;1.00;1.00;;;;;22.71;33.09;101492.28;5075209;28;45659;-74
2023/04/25 09:07:11;;;;;;;;;1.75;0.25;;;;;22.71;33.10;101487.00;5075813;28;45348;-74
2023/04/25 09:09:37;;;;;;;;;4.33;1.00;;;;;22.77;33.33;101515.47;5076010;28;45371;-75
2023/04/25 09:12:02;;;;;;;;;5.00;0.00;;;;;22.69;33.17;101489.75;5075939;27;45362;-74
2023/04/25 09:14:28;;;;;;;;;1.00;1.00;;;;;22.73;32.91;101507.03;5075472;28;46282;-75
2023/04/25 09:16:56;;;;;;;;;1.00;1.00;;;;;22.80;32.76;101516.97;5075673;28;45409;-74
2023/04/25 09:19:27;;;;;;;;;2.00;1.00;;;;;22.76;33.12;101513.00;5076072;28;45367;-74
2023/04/25 09:21:57;;;;;;;;;1.25;1.25;;;;;22.67;33.26;101497.06;5075785;28;45446;-74
2023/04/25 09:24:45;;;;;;;;;2.00;2.00;;;;;22.67;33.15;101494.41;5075481;28;46275;-74
2023/04/25 09:27:17;;;;;;;;;2.00;2.00;;;;;22.72;32.84;101515.16;5075498;27;45321;-75
2023/04/25 09:29:43;;;;;;;;;1.00;1.00;;;;;22.71;33.18;101513.50;5075263;28;45281;-74
2023/04/25 09:32:19;;;;;;;;;1.00;1.00;;;;;22.69;32.81;101524.25;5075477;28;45420;-74
2023/04/25 09:34:49;;;;;;;;;1.75;1.75;;;;;22.72;33.28;101521.28;5057307;28;47474;-75
2023/04/25 09:37:21;;;;;;;;;3.50;1.00;;;;;22.69;32.97;101518.13;5075600;28;45442;-74
2023/04/25 09:39:51;;;;;;;;;1.00;1.00;;;;;22.74;32.64;101534.41;5075438;27;45556;-75
2023/04/25 09:42:17;;;;;;;;;1.00;1.00;;;;;22.67;32.71;101518.28;5075624;27;45233;-75
2023/04/25 09:44:44;;;;;;;;;1.33;0.00;;;;;22.78;33.08;101543.66;5075200;28;45312;-73
2023/04/25 09:47:12;;;;;;;;;2.00;0.67;;;;;22.77;33.19;101541.19;5075397;28;45258;-74
2023/04/25 09:49:40;;;;;;;;;1.00;1.00;;;;;22.77;33.16;101536.69;5075379;28;45412;-75
2023/04/25 09:52:06;;;;;;;;;1.00;1.00;;;;;22.80;32.84;101551.44;5075346;28;45455;-74
2023/04/25 09:54:31;;;;;;;;;2.00;1.00;;;;;22.78;32.90;101546.31;5075026;28;52480;-75
2023/04/25 09:57:05;;;;;;;;;1.67;0.33;;;;;22.79;33.21;101534.72;5075075;28;45374;-75
2023/04/25 09:59:32;;;;;;;;;0.67;0.67;;;;;22.70;33.09;101533.06;5075592;27;45564;-75
2023/04/25 10:01:58;;;;;;;;;2.00;2.00;;;;;22.69;33.12;101531.41;5075402;28;45423;-74
2023/04/25 10:04:27;;;;;;;;;1.00;1.00;;;;;22.79;32.45;101548.00;5075017;28;47032;-74
2023/04/25 10:06:55;;;;;;;;;0.00;0.00;;;;;22.77;32.59;101533.25;5075128;28;45411;-74
2023/04/25 10:09:25;;;;;;;;;2.00;2.00;;;;;22.72;32.83;101536.38;5075336;28;45349;-75
2023/04/25 10:11:51;;;;;;;;;5.00;1.50;;;;;22.68;32.77;101533.22;5074707;28;45371;-75
2023/04/25 10:14:18;;;;;;;;;1.00;1.00;;;;;22.76;32.70;101553.63;5074912;28;47003;-74
2023/04/25 10:16:45;;;;;;;;;2.33;2.00;;;;;22.79;33.02;101560.41;5076828;28;45489;-74
2023/04/25 10:19:11;;;;;;;;;3.00;3.00;;;;;22.66;32.48;101537.88;5078550;27;45363;-75
2023/04/25 10:21:46;;;;;;;;;2.00;2.00;;;;;22.71;32.85;101543.53;5078451;27;45539;-75
2023/04/25 10:24:12;;;;;;;;;1.00;1.00;;;;;22.69;32.77;101545.47;5078278;27;47805;-75
2023/04/25 10:26:38;;;;;;;;;1.00;1.00;;;;;22.79;32.74;101557.78;5077730;27;45379;-74
2023/04/25 10:29:04;;;;;;;;;1.00;1.00;;;;;22.79;33.05;101558.59;5078198;27;45495;-74
2023/04/25 10:31:30;;;;;;;;;2.00;1.00;;;;;22.74;32.95;101556.44;5060201;28;45487;-74
2023/04/25 10:33:56;;;;;;;;;1.75;1.00;;;;;22.80;32.96;101562.06;5078025;27;46438;-76
2023/04/25 10:36:23;;;;;;;;;2.00;1.00;;;;;22.74;32.38;101553.78;5078126;27;45614;-75
2023/04/25 10:38:50;;;;;;;;;0.67;0.67;;;;;22.62;32.32;101542.66;5078143;28;45416;-76
2023/04/25 10:41:19;;;;;;;;;0.67;0.67;;;;;22.41;32.60;101508.69;5077804;28;45358;-75
2023/04/25 10:43:48;;;;;;;;;1.00;1.00;;;;;22.70;32.60;101556.94;5078020;27;45313;-76
2023/04/25 10:46:17;;;;;;;;;0.33;0.33;;;;;22.77;32.48;101563.22;5077970;27;45407;-75
2023/04/25 10:48:54;;;;;;;;;1.67;1.67;;;;;22.73;32.78;101561.91;5078070;28;45364;-76
2023/04/25 10:51:25;;;;;;;;;2.00;2.00;;;;;22.79;32.67;101565.72;5059747;28;45346;-75
2023/04/25 10:53:57;;;;;;;;;1.00;1.00;;;;;22.81;32.74;101569.03;5077826;28;47133;-75
2023/04/25 10:56:25;;;;;;;;;1.00;1.00;;;;;22.66;32.58;101553.78;5077427;28;45366;-75
2023/04/25 10:58:50;;;;;;;;;3.00;1.00;;;;;22.78;32.31;101564.91;5077856;28;45554;-75
2023/04/25 11:01:20;;;;;;;;;1.00;1.00;;;;;22.70;32.43;101559.59;5078005;27;45360;-75
2023/04/25 11:03:50;;;;;;;;;3.50;2.75;;;;;22.72;32.32;101558.44;5077694;27;46239;-75
2023/04/25 11:06:58;;;;;;;;;1.33;1.33;;;;;22.80;32.79;101562.06;5077710;27;45412;-76
2023/04/25 11:09:24;;;;;;;;;1.00;1.00;;;;;22.80;32.82;101562.91;5063701;27;45402;-75
2023/04/25 11:11:58;;;;;;;;;1.25;1.25;;;;;22.80;32.64;101562.06;5077527;27;45406;-75
2023/04/25 11:14:23;;;;;;;;;1.00;1.00;;;;;22.80;32.62;101568.19;5077509;27;47040;-75
2023/04/25 11:16:55;;;;;;;;;1.33;1.33;;;;;22.80;32.59;101562.91;5077393;28;45378;-75
2023/04/25 11:19:22;;;;;;;;;0.00;0.00;;;;;22.78;32.43;101570.19;5077690;28;45428;-75